Terminal Aerodrome Forecast
Issued by NWS

Home | Current Version | Previous Version | Text Only | Print | Product List | Glossary On
Versions: 1 2 3 4 5 6 7 8 9 10 11 12 13 14 15 16 17 18 19 20 21 22 23 24 25 26 27
337
FTUS46 KPDT 220520
TAFRDM
TAF
KRDM 220520Z 2206/2306 VRB04KT P6SM VCSH SCT050 OVC090
     FM221000 30004KT 2SM -SN BR BKN007 OVC011
     FM221800 34006KT 6SM -SHSN SCT011 OVC028
     FM222100 34009KT P6SM SCT028 BKN040
     FM230300 VRB05KT P6SM SCT080=

USA.gov is the U.S. government's official web portal to all federal, state and local government web resources and services.